createdAt,value
2022-12-29T00:00:02.110Z,1307.5420
2022-12-29T00:00:13.312Z,1304.9850
2022-12-29T00:00:24.404Z,1303.7111
2022-12-29T00:00:35.482Z,1302.4390
2022-12-29T00:00:46.655Z,1308.8240
2022-12-29T00:00:57.856Z,1306.2620
2022-12-29T00:01:09.047Z,1303.7111
2022-12-29T00:01:20.158Z,1307.5420
2022-12-29T00:01:31.364Z,1303.7111
2022-12-29T00:01:42.553Z,1307.5420
2022-12-29T00:01:53.762Z,1298.6379
2022-12-29T00:02:04.962Z,1303.7111
2022-12-29T00:02:16.200Z,1311.3950
2022-12-29T00:02:27.340Z,1298.6379
2022-12-29T00:02:38.800Z,1306.2620
2022-12-29T00:02:50.270Z,1301.1700
2022-12-29T00:03:01.869Z,1299.9030
2022-12-29T00:03:13.281Z,1306.2620
2022-12-29T00:03:25.182Z,1296.1169
2022-12-29T00:03:36.661Z,1301.1700
2022-12-29T00:03:47.828Z,1302.4390
2022-12-29T00:03:59.037Z,1292.3521
2022-12-29T00:04:14.732Z,1298.6379
2022-12-29T00:04:27.040Z,1289.8550
2022-12-29T00:04:38.254Z,1281.1899
2022-12-29T00:04:49.315Z,1283.6541
2022-12-29T00:05:00.402Z,1296.1169
2022-12-29T00:05:11.550Z,1301.1700
2022-12-29T00:05:22.763Z,1299.9030
2022-12-29T00:05:33.917Z,1293.6050
2022-12-29T00:05:45.124Z,1298.6379
2022-12-29T00:05:56.316Z,1292.3521
2022-12-29T00:06:07.529Z,1301.1700
2022-12-29T00:06:18.727Z,1289.8550
2022-12-29T00:06:29.762Z,1296.1169
2022-12-29T00:06:40.837Z,1301.1700
2022-12-29T00:06:52.003Z,1306.2620
2022-12-29T00:07:03.094Z,1306.2620
2022-12-29T00:07:14.137Z,1286.1270
2022-12-29T00:07:25.283Z,1302.4390
2022-12-29T00:07:36.342Z,1297.3760
2022-12-29T00:07:47.391Z,1298.6379
2022-12-29T00:07:58.566Z,1296.1169
2022-12-29T00:08:09.637Z,1293.6050
2022-12-29T00:08:20.711Z,1292.3521
2022-12-29T00:08:31.842Z,1303.7111
2022-12-29T00:08:42.886Z,1298.6379
2022-12-29T00:08:53.952Z,1302.4390
2022-12-29T00:09:05.125Z,1303.7111
2022-12-29T00:09:16.196Z,1304.9850
2022-12-29T00:09:27.272Z,1294.8590
2022-12-29T00:09:38.313Z,1299.9030
2022-12-29T00:09:49.376Z,1302.4390
2022-12-29T00:10:00.481Z,1303.7111
2022-12-29T00:10:11.687Z,1293.6050
2022-12-29T00:10:22.761Z,1306.2620
2022-12-29T00:10:33.864Z,1306.2620
2022-12-29T00:10:44.961Z,1294.8590
2022-12-29T00:10:56.165Z,1306.2620
2022-12-29T00:11:07.358Z,1304.9850
2022-12-29T00:11:18.561Z,1304.9850
2022-12-29T00:11:29.756Z,1294.8590
2022-12-29T00:11:40.803Z,1306.2620
2022-12-29T00:11:51.857Z,1301.1700
2022-12-29T00:12:03.042Z,1301.1700
2022-12-29T00:12:14.259Z,1303.7111
2022-12-29T00:12:25.288Z,1310.1080
2022-12-29T00:12:36.368Z,1312.6840
2022-12-29T00:12:47.523Z,1312.6840
2022-12-29T00:12:58.721Z,1316.5680
2022-12-29T00:13:09.928Z,1308.8240
2022-12-29T00:13:21.124Z,1315.2710
2022-12-29T00:13:32.351Z,1317.8680
2022-12-29T00:13:43.525Z,1311.3950
2022-12-29T00:13:54.724Z,1316.5680
2022-12-29T00:14:05.941Z,1319.1700
2022-12-29T00:14:21.431Z,1315.2710
2022-12-29T00:14:34.094Z,1310.1080
2022-12-29T00:14:45.197Z,1315.2710
2022-12-29T00:14:56.276Z,1320.4750
2022-12-29T00:15:07.370Z,1319.1700
2022-12-29T00:15:18.442Z,1321.7820
2022-12-29T00:15:29.512Z,1320.4750
2022-12-29T00:15:40.721Z,1317.8680
2022-12-29T00:15:51.909Z,1328.3580
2022-12-29T00:16:03.159Z,1329.6810
2022-12-29T00:16:14.372Z,1329.6810
2022-12-29T00:16:25.489Z,1331.0070
2022-12-29T00:16:36.712Z,1333.6660
2022-12-29T00:16:47.838Z,1327.0380
2022-12-29T00:16:59.045Z,1335.0000
2022-12-29T00:17:10.242Z,1336.3361
2022-12-29T00:17:21.442Z,1329.6810
2022-12-29T00:17:32.646Z,1337.6750
2022-12-29T00:17:43.842Z,1344.4110
2022-12-29T00:17:55.046Z,1340.3610
2022-12-29T00:18:06.113Z,1343.0580
2022-12-29T00:18:18.115Z,1348.4850
2022-12-29T00:18:29.296Z,1348.4850
2022-12-29T00:18:40.481Z,1351.2150
2022-12-29T00:18:51.688Z,1340.3610
2022-12-29T00:19:02.757Z,1347.1240
2022-12-29T00:19:13.873Z,1353.9550
2022-12-29T00:19:24.956Z,1348.4850
2022-12-29T00:19:36.042Z,1356.7070
2022-12-29T00:19:47.115Z,1356.7070
2022-12-29T00:19:58.248Z,1356.7070
2022-12-29T00:20:09.445Z,1366.4280
2022-12-29T00:20:20.535Z,1362.2450
2022-12-29T00:20:31.623Z,1362.2450
2022-12-29T00:20:42.723Z,1370.6370
2022-12-29T00:20:53.937Z,1370.6370
2022-12-29T00:21:04.963Z,1367.8280
2022-12-29T00:21:16.031Z,1370.6370
2022-12-29T00:21:29.163Z,1370.6370
2022-12-29T00:21:40.320Z,1365.0310
2022-12-29T00:21:51.523Z,1367.8280
2022-12-29T00:22:02.715Z,1376.2889
2022-12-29T00:22:13.924Z,1379.1320
2022-12-29T00:22:25.133Z,1372.0450
2022-12-29T00:22:36.327Z,1374.8710
2022-12-29T00:22:47.523Z,1381.9880
2022-12-29T00:22:58.725Z,1381.9880
2022-12-29T00:23:09.922Z,1384.8550
2022-12-29T00:23:21.127Z,1387.7340
2022-12-29T00:23:32.321Z,1381.9880
2022-12-29T00:23:43.971Z,1390.6250
2022-12-29T00:23:55.042Z,1387.7340
2022-12-29T00:24:06.245Z,1387.7340
2022-12-29T00:24:18.131Z,1384.8550
2022-12-29T00:24:29.653Z,1394.9840
2022-12-29T00:24:40.723Z,1393.5280
2022-12-29T00:24:51.782Z,1397.9060
2022-12-29T00:25:02.932Z,1389.1780
2022-12-29T00:25:14.009Z,1392.0750
2022-12-29T00:25:25.096Z,1399.3710
2022-12-29T00:25:36.162Z,1402.3110
2022-12-29T00:25:47.435Z,1406.7440
2022-12-29T00:25:58.495Z,1406.7440
2022-12-29T00:26:09.551Z,1412.6980
2022-12-29T00:26:20.644Z,1411.2050
2022-12-29T00:26:31.841Z,1414.1949
2022-12-29T00:26:42.919Z,1417.1970
2022-12-29T00:26:53.957Z,1408.2280
2022-12-29T00:27:05.125Z,1430.8680
2022-12-29T00:27:16.315Z,1418.7040
2022-12-29T00:27:27.394Z,1421.7250
2022-12-29T00:27:38.455Z,1417.1970
2022-12-29T00:27:49.607Z,1408.2280
2022-12-29T00:28:06.543Z,1409.7150
2022-12-29T00:28:17.784Z,1405.2629
2022-12-29T00:28:29.334Z,1405.2629
2022-12-29T00:28:40.482Z,1409.7150
2022-12-29T00:28:51.681Z,1415.6949
2022-12-29T00:29:02.903Z,1426.2820
2022-12-29T00:29:14.162Z,1426.2820
2022-12-29T00:29:25.251Z,1429.3361
2022-12-29T00:29:36.486Z,1427.8080
2022-12-29T00:29:47.567Z,1430.8680
2022-12-29T00:29:58.648Z,1426.2820
2022-12-29T00:30:09.768Z,1435.4840
2022-12-29T00:30:20.965Z,1438.5780
2022-12-29T00:30:32.046Z,1438.5780
2022-12-29T00:30:43.122Z,1441.6851
2022-12-29T00:30:54.297Z,1438.5780
2022-12-29T00:31:05.497Z,1443.2430
2022-12-29T00:31:16.652Z,1452.6660
2022-12-29T00:31:29.567Z,1432.4030
2022-12-29T00:31:40.747Z,1438.5780
2022-12-29T00:31:51.933Z,1435.4840
2022-12-29T00:32:03.082Z,1454.2480
2022-12-29T00:32:14.264Z,1449.5110
2022-12-29T00:32:25.440Z,1451.0870
2022-12-29T00:32:36.666Z,1451.0870
2022-12-29T00:32:47.842Z,1451.0870
2022-12-29T00:32:59.047Z,1454.2480
2022-12-29T00:33:10.116Z,1449.5110
2022-12-29T00:33:21.176Z,1459.0160
2022-12-29T00:33:32.324Z,1467.0330
2022-12-29T00:33:43.881Z,1459.0160
2022-12-29T00:33:55.035Z,1467.0330
2022-12-29T00:34:06.245Z,1470.2640
2022-12-29T00:34:18.461Z,1467.0330
2022-12-29T00:34:29.596Z,1467.0330
2022-12-29T00:34:40.796Z,1473.5100
2022-12-29T00:34:52.015Z,1476.7700
2022-12-29T00:35:03.201Z,1476.7700
2022-12-29T00:35:14.405Z,1478.4050
2022-12-29T00:35:25.601Z,1473.5100
2022-12-29T00:35:36.813Z,1460.6130
2022-12-29T00:35:48.001Z,1483.3330
2022-12-29T00:35:59.234Z,1467.0330
2022-12-29T00:36:10.297Z,1478.4050
2022-12-29T00:36:21.362Z,1481.6870
2022-12-29T00:36:32.481Z,1476.7700
2022-12-29T00:36:44.371Z,1486.6370
2022-12-29T00:36:55.532Z,1486.6370
2022-12-29T00:37:06.564Z,1484.9830
2022-12-29T00:37:18.609Z,1486.6370
2022-12-29T00:37:29.655Z,1491.6200
2022-12-29T00:37:40.746Z,1486.6370
2022-12-29T00:37:51.848Z,1476.7700
2022-12-29T00:38:02.924Z,1496.6370
2022-12-29T00:38:13.996Z,1491.6200
2022-12-29T00:38:25.115Z,1494.9611
2022-12-29T00:38:36.326Z,1496.6370
2022-12-29T00:38:47.522Z,1496.6370
2022-12-29T00:38:58.588Z,1496.6370
2022-12-29T00:39:09.626Z,1500.0000
2022-12-29T00:39:20.807Z,1493.2889
2022-12-29T00:39:32.004Z,1503.3781
2022-12-29T00:39:43.235Z,1493.2889
2022-12-29T00:39:54.285Z,1506.7720
2022-12-29T00:40:05.342Z,1506.7720
2022-12-29T00:40:16.398Z,1513.6050
2022-12-29T00:40:27.493Z,1513.6050
2022-12-29T00:40:38.561Z,1513.6050
2022-12-29T00:40:49.775Z,1500.0000
2022-12-29T00:41:00.997Z,1497.4760
2022-12-29T00:41:12.052Z,1513.6050
2022-12-29T00:41:23.143Z,1515.3240
2022-12-29T00:41:34.269Z,1493.2889
2022-12-29T00:41:45.447Z,1513.6050
2022-12-29T00:41:56.670Z,1494.1240
2022-12-29T00:42:07.841Z,1515.3240
2022-12-29T00:42:19.056Z,1506.7720
2022-12-29T00:42:30.264Z,1512.7480
2022-12-29T00:42:41.446Z,1505.0730
2022-12-29T00:42:52.636Z,1513.6050
2022-12-29T00:43:03.850Z,1502.5320
2022-12-29T00:43:15.064Z,1513.6050
2022-12-29T00:43:26.246Z,1514.4640
2022-12-29T00:43:37.443Z,1495.7980
2022-12-29T00:43:48.656Z,1507.6230
2022-12-29T00:43:59.841Z,1505.9220
2022-12-29T00:44:11.092Z,1513.6050
2022-12-29T00:44:22.161Z,1506.7720
2022-12-29T00:44:33.222Z,1507.6230
2022-12-29T00:44:45.001Z,1511.8910
2022-12-29T00:44:56.162Z,1511.8910
2022-12-29T00:45:07.361Z,1518.7710
2022-12-29T00:45:18.403Z,1515.3230
2022-12-29T00:45:29.452Z,1517.0450
2022-12-29T00:45:40.653Z,1511.0360
2022-12-29T00:45:51.836Z,1519.6360
2022-12-29T00:46:03.073Z,1522.2350
2022-12-29T00:46:19.804Z,1522.2350
2022-12-29T00:46:31.286Z,1500.0000
2022-12-29T00:46:42.456Z,1498.3160
2022-12-29T00:46:53.652Z,1503.3781
2022-12-29T00:47:04.819Z,1511.8910
2022-12-29T00:47:16.086Z,1505.0730
2022-12-29T00:47:29.475Z,1520.5010
2022-12-29T00:47:40.535Z,1527.4600
2022-12-29T00:47:51.606Z,1519.6360
2022-12-29T00:48:02.676Z,1527.4600
2022-12-29T00:48:13.728Z,1527.4600
2022-12-29T00:48:25.162Z,1514.4640
2022-12-29T00:48:36.321Z,1517.0450
2022-12-29T00:48:47.366Z,1515.3230
2022-12-29T00:48:58.444Z,1522.2350
2022-12-29T00:49:09.522Z,1536.2490
2022-12-29T00:49:20.601Z,1536.2490
2022-12-29T00:49:31.700Z,1539.7920
2022-12-29T00:49:42.885Z,1532.7209
2022-12-29T00:49:54.091Z,1527.4600
2022-12-29T00:50:05.274Z,1539.7920
2022-12-29T00:50:16.481Z,1536.2490
2022-12-29T00:50:29.327Z,1533.6010
2022-12-29T00:50:40.485Z,1536.2490
2022-12-29T00:50:51.685Z,1538.0179
2022-12-29T00:51:02.886Z,1538.0179
2022-12-29T00:51:14.201Z,1546.9290
2022-12-29T00:51:25.276Z,1543.3530
2022-12-29T00:51:36.513Z,1547.8260
2022-12-29T00:51:47.556Z,1550.5229
2022-12-29T00:51:58.606Z,1535.3650
2022-12-29T00:52:09.786Z,1542.4611
2022-12-29T00:52:20.964Z,1546.9290
2022-12-29T00:52:32.162Z,1555.0380
2022-12-29T00:52:43.356Z,1544.2450
2022-12-29T00:52:54.566Z,1555.0380
2022-12-29T00:53:05.759Z,1540.6810
2022-12-29T00:53:16.965Z,1550.5229
2022-12-29T00:53:28.851Z,1542.4611
2022-12-29T00:53:39.886Z,1552.3260
2022-12-29T00:53:50.969Z,1559.5790
2022-12-29T00:54:02.013Z,1556.8510
2022-12-29T00:54:13.081Z,1555.9440
2022-12-29T00:54:25.475Z,1548.7240
2022-12-29T00:54:36.522Z,1565.9821
2022-12-29T00:54:47.584Z,1545.1390
2022-12-29T00:54:58.645Z,1550.5229
2022-12-29T00:55:09.737Z,1563.2321
2022-12-29T00:55:20.802Z,1557.7600
2022-12-29T00:55:32.004Z,1554.1331
2022-12-29T00:55:43.209Z,1565.0640
2022-12-29T00:55:54.415Z,1551.4240
2022-12-29T00:56:05.602Z,1563.2321
2022-12-29T00:56:16.856Z,1563.2321
2022-12-29T00:56:29.326Z,1561.4041
2022-12-29T00:56:40.486Z,1553.2290
2022-12-29T00:56:51.691Z,1574.2920
2022-12-29T00:57:02.895Z,1561.4041
2022-12-29T00:57:14.007Z,1561.4041
2022-12-29T00:57:25.107Z,1557.7600
2022-12-29T00:57:36.203Z,1574.2920
2022-12-29T00:57:47.251Z,1563.2321
2022-12-29T00:57:58.317Z,1578.9470
2022-12-29T00:58:09.381Z,1573.3650
2022-12-29T00:58:20.467Z,1564.1479
2022-12-29T00:58:31.522Z,1572.4380
2022-12-29T00:58:42.734Z,1570.5880
2022-12-29T00:58:53.932Z,1584.5699
2022-12-29T00:59:05.002Z,1590.2321
2022-12-29T00:59:16.057Z,1581.7540
2022-12-29T00:59:29.171Z,1574.2920
2022-12-29T00:59:40.267Z,1575.2209
2022-12-29T00:59:51.333Z,1578.0140
2022-12-29T01:00:02.427Z,1578.9470
2022-12-29T01:00:13.598Z,1587.3960
2022-12-29T01:00:25.530Z,1566.9010
2022-12-29T01:00:36.712Z,1583.6300
2022-12-29T01:00:47.787Z,1576.1510
2022-12-29T01:00:59.121Z,1573.3650
2022-12-29T01:01:10.292Z,1593.0790
2022-12-29T01:01:21.616Z,1589.2860
2022-12-29T01:01:32.922Z,1581.7540
2022-12-29T01:01:44.260Z,1587.3960
2022-12-29T01:01:55.490Z,1591.1801
2022-12-29T01:02:06.704Z,1592.1290
2022-12-29T01:02:18.530Z,1598.8020
2022-12-29T01:02:29.861Z,1598.8020
2022-12-29T01:02:41.256Z,1578.0140
2022-12-29T01:02:52.391Z,1578.0140
2022-12-29T01:03:03.703Z,1591.1801
2022-12-29T01:03:15.126Z,1589.2860
2022-12-29T01:03:26.245Z,1596.8900
2022-12-29T01:03:37.447Z,1596.8900
2022-12-29T01:03:48.643Z,1583.6300
2022-12-29T01:04:03.876Z,1602.6410
2022-12-29T01:04:15.561Z,1594.0300
2022-12-29T01:04:26.625Z,1579.8820
2022-12-29T01:04:37.691Z,1589.2860
2022-12-29T01:04:48.777Z,1598.8020
2022-12-29T01:05:00.001Z,1598.8020
2022-12-29T01:05:11.217Z,1588.3400
2022-12-29T01:05:22.406Z,1594.9821
2022-12-29T01:05:33.606Z,1600.7190
2022-12-29T01:05:44.806Z,1585.5110
2022-12-29T01:05:56.010Z,1606.4980
2022-12-29T01:06:07.202Z,1602.6410
2022-12-29T01:06:18.413Z,1604.5670
2022-12-29T01:06:29.663Z,1594.9821
2022-12-29T01:06:40.801Z,1600.7190
2022-12-29T01:06:51.860Z,1614.2679
2022-12-29T01:07:02.936Z,1610.3740
2022-12-29T01:07:13.963Z,1611.3459
2022-12-29T01:07:25.337Z,1596.8900
2022-12-29T01:07:36.501Z,1608.4340
2022-12-29T01:07:47.678Z,1617.2020
2022-12-29T01:07:58.896Z,1609.4030
2022-12-29T01:08:10.088Z,1620.1460
2022-12-29T01:08:21.285Z,1612.3190
2022-12-29T01:08:32.481Z,1619.1630
2022-12-29T01:08:43.689Z,1605.5320
2022-12-29T01:08:54.761Z,1606.4980
2022-12-29T01:09:05.831Z,1616.2230
2022-12-29T01:09:16.956Z,1602.6410
2022-12-29T01:09:28.167Z,1608.4340
2022-12-29T01:09:39.358Z,1614.2679
2022-12-29T01:09:50.565Z,1619.1630
2022-12-29T01:10:01.635Z,1616.2230
2022-12-29T01:10:12.699Z,1614.2679
2022-12-29T01:10:23.844Z,1617.2020
2022-12-29T01:10:35.073Z,1624.0880
2022-12-29T01:10:46.233Z,1626.0660
2022-12-29T01:10:57.445Z,1614.2679
2022-12-29T01:11:08.647Z,1618.1820
2022-12-29T01:11:19.842Z,1625.0760
2022-12-29T01:11:31.077Z,1616.2230
2022-12-29T01:11:42.248Z,1634.0270
2022-12-29T01:11:53.437Z,1624.0880
2022-12-29T01:12:04.480Z,1624.0880
2022-12-29T01:12:15.559Z,1621.1290
2022-12-29T01:12:26.727Z,1616.2230
2022-12-29T01:12:37.915Z,1626.0660
2022-12-29T01:12:49.148Z,1627.0570
2022-12-29T01:13:00.332Z,1623.1000
2022-12-29T01:13:11.529Z,1627.0570
2022-12-29T01:13:22.721Z,1632.0291
2022-12-29T01:13:33.925Z,1631.0320
2022-12-29T01:13:45.116Z,1626.0660
2022-12-29T01:13:56.327Z,1633.0280
2022-12-29T01:14:07.390Z,1630.0370
2022-12-29T01:14:18.459Z,1640.0490
2022-12-29T01:14:29.515Z,1629.0420
2022-12-29T01:14:40.585Z,1642.0660
2022-12-29T01:14:51.682Z,1636.0291
2022-12-29T01:15:02.918Z,1619.1630
2022-12-29T01:15:13.963Z,1628.0490
2022-12-29T01:15:25.285Z,1636.0291
2022-12-29T01:15:36.476Z,1644.0890
2022-12-29T01:15:47.740Z,1630.0370
2022-12-29T01:15:58.976Z,1639.0420
2022-12-29T01:16:10.120Z,1643.0770
2022-12-29T01:16:21.197Z,1639.0420
2022-12-29T01:16:32.409Z,1638.0370
2022-12-29T01:16:43.633Z,1646.1160
2022-12-29T01:16:54.713Z,1639.0420
2022-12-29T01:17:05.776Z,1639.0420
2022-12-29T01:17:16.974Z,1649.1660
2022-12-29T01:17:28.028Z,1634.0270
2022-12-29T01:17:39.107Z,1633.0280
2022-12-29T01:17:50.254Z,1644.0890
2022-12-29T01:18:01.276Z,1645.1021
2022-12-29T01:18:12.324Z,1644.0890
2022-12-29T01:18:23.516Z,1643.0770
2022-12-29T01:18:34.574Z,1640.0490
2022-12-29T01:18:45.672Z,1654.2750
2022-12-29T01:18:56.804Z,1653.2510
2022-12-29T01:19:07.995Z,1655.3010
2022-12-29T01:19:19.204Z,1652.2280
2022-12-29T01:19:30.413Z,1648.1479
2022-12-29T01:19:41.472Z,1634.0270
2022-12-29T01:19:52.541Z,1658.3850
2022-12-29T01:20:03.689Z,1662.5160
2022-12-29T01:20:14.882Z,1658.3850
2022-12-29T01:20:26.087Z,1642.0660
2022-12-29T01:20:37.308Z,1644.0890
2022-12-29T01:20:48.496Z,1653.2510
2022-12-29T01:20:59.688Z,1656.3280
2022-12-29T01:21:10.891Z,1646.1160
2022-12-29T01:21:22.094Z,1650.1851
2022-12-29T01:21:33.326Z,1646.1160
2022-12-29T01:21:44.835Z,1650.1851
2022-12-29T01:21:55.907Z,1654.2750
2022-12-29T01:22:06.976Z,1657.3560
2022-12-29T01:22:18.447Z,1654.2750
2022-12-29T01:22:29.607Z,1654.2750
2022-12-29T01:22:40.804Z,1643.0770
2022-12-29T01:22:51.881Z,1649.1660
2022-12-29T01:23:02.946Z,1653.2510
2022-12-29T01:23:14.085Z,1654.2750
2022-12-29T01:23:25.284Z,1646.1160
2022-12-29T01:23:36.482Z,1661.4810
2022-12-29T01:23:47.684Z,1656.3280
2022-12-29T01:23:58.892Z,1648.1479
2022-12-29T01:24:10.085Z,1663.5510
2022-12-29T01:24:21.288Z,1654.2750
2022-12-29T01:24:32.504Z,1649.1660
2022-12-29T01:24:43.527Z,1669.7939
2022-12-29T01:24:54.582Z,1659.4160
2022-12-29T01:25:05.767Z,1658.3850
2022-12-29T01:25:16.987Z,1660.4480
2022-12-29T01:25:29.480Z,1664.5890
2022-12-29T01:25:40.649Z,1664.5890
2022-12-29T01:25:51.868Z,1658.3850
2022-12-29T01:26:03.048Z,1647.1310
2022-12-29T01:26:14.084Z,1656.3280
2022-12-29T01:26:25.456Z,1651.2061
2022-12-29T01:26:36.707Z,1652.2280
2022-12-29T01:26:47.761Z,1662.5160
2022-12-29T01:26:58.841Z,1660.4480
2022-12-29T01:27:09.926Z,1661.4810
2022-12-29T01:27:21.125Z,1663.5510
2022-12-29T01:27:32.335Z,1657.3560
2022-12-29T01:27:43.874Z,1679.2450
2022-12-29T01:27:55.075Z,1673.9810
2022-12-29T01:28:06.240Z,1671.8850
2022-12-29T01:28:22.261Z,1677.1360
2022-12-29T01:28:35.424Z,1654.2750
2022-12-29T01:28:46.604Z,1653.2510
2022-12-29T01:28:57.761Z,1662.5160
2022-12-29T01:29:08.964Z,1649.1660
2022-12-29T01:29:20.170Z,1658.3850
2022-12-29T01:29:31.366Z,1665.6270
2022-12-29T01:29:42.435Z,1670.8390
2022-12-29T01:29:53.505Z,1666.6670
2022-12-29T01:30:04.680Z,1666.6670
2022-12-29T01:30:15.851Z,1657.3560
2022-12-29T01:30:27.054Z,1666.6670
2022-12-29T01:30:38.244Z,1659.4160
2022-12-29T01:30:49.447Z,1667.7080
2022-12-29T01:31:00.646Z,1653.2510
2022-12-29T01:31:11.933Z,1660.4480
2022-12-29T01:31:23.078Z,1662.5160
2022-12-29T01:31:34.273Z,1668.7500
2022-12-29T01:31:45.451Z,1661.4810
2022-12-29T01:31:56.694Z,1656.3280
2022-12-29T01:32:07.738Z,1671.8850
2022-12-29T01:32:18.816Z,1667.7080
2022-12-29T01:32:29.948Z,1660.4480
2022-12-29T01:32:41.152Z,1670.8390
2022-12-29T01:32:52.205Z,1660.4480
2022-12-29T01:33:03.299Z,1670.8390
2022-12-29T01:33:14.363Z,1660.4480
2022-12-29T01:33:25.431Z,1675.0310
2022-12-29T01:33:36.486Z,1670.8390
2022-12-29T01:33:47.677Z,1668.7500
2022-12-29T01:33:58.746Z,1671.8850
2022-12-29T01:34:09.836Z,1673.9810
2022-12-29T01:34:20.888Z,1672.9320
2022-12-29T01:34:31.957Z,1664.5890
2022-12-29T01:34:43.023Z,1672.9320
2022-12-29T01:34:54.242Z,1685.6060
2022-12-29T01:35:05.282Z,1678.1899
2022-12-29T01:35:16.349Z,1666.6670
2022-12-29T01:35:29.496Z,1681.3600
2022-12-29T01:35:40.659Z,1681.3600
2022-12-29T01:35:51.847Z,1677.1360
2022-12-29T01:36:03.059Z,1682.4200
2022-12-29T01:36:14.245Z,1682.4200
2022-12-29T01:36:25.439Z,1683.4800
2022-12-29T01:36:36.643Z,1676.0830
2022-12-29T01:36:47.828Z,1683.4800
2022-12-29T01:36:59.046Z,1677.1360
2022-12-29T01:37:10.237Z,1676.0830
2022-12-29T01:37:21.448Z,1675.0310
2022-12-29T01:37:32.638Z,1677.1360
2022-12-29T01:37:43.841Z,1668.7500
2022-12-29T01:37:55.048Z,1685.6060
2022-12-29T01:38:06.250Z,1689.8730
2022-12-29T01:38:17.437Z,1679.2450
2022-12-29T01:38:29.326Z,1682.4200
2022-12-29T01:38:40.391Z,1679.2450
2022-12-29T01:38:51.456Z,1670.8390
2022-12-29T01:39:02.566Z,1687.7371
2022-12-29T01:39:14.281Z,1673.9810
2022-12-29T01:39:25.605Z,1670.8390
2022-12-29T01:39:36.671Z,1676.0830
2022-12-29T01:39:47.801Z,1690.9440
2022-12-29T01:39:58.888Z,1677.1360
2022-12-29T01:40:10.088Z,1680.3020
2022-12-29T01:40:21.284Z,1677.1360
2022-12-29T01:40:32.482Z,1694.1620
2022-12-29T01:40:43.722Z,1692.0150
2022-12-29T01:40:54.891Z,1680.3020
2022-12-29T01:41:06.085Z,1690.9440
2022-12-29T01:41:17.318Z,1678.1899
2022-12-29T01:41:29.811Z,1675.0310
2022-12-29T01:41:40.965Z,1670.8390
2022-12-29T01:41:52.198Z,1685.6060
2022-12-29T01:42:03.353Z,1683.4800
2022-12-29T01:42:14.407Z,1687.7371
2022-12-29T01:42:25.510Z,1675.0310
2022-12-29T01:42:36.563Z,1687.7371
2022-12-29T01:42:47.649Z,1686.6710
2022-12-29T01:42:58.749Z,1689.8730
2022-12-29T01:43:09.918Z,1670.8390
2022-12-29T01:43:20.970Z,1683.4800
2022-12-29T01:43:32.041Z,1679.2450
2022-12-29T01:43:43.204Z,1694.1620
2022-12-29T01:43:54.401Z,1692.0150
2022-12-29T01:44:05.596Z,1692.0150
2022-12-29T01:44:16.802Z,1697.3940
2022-12-29T01:44:29.003Z,1685.6060
2022-12-29T01:44:40.161Z,1695.2380
2022-12-29T01:44:51.378Z,1687.7371
2022-12-29T01:45:02.562Z,1687.7371
2022-12-29T01:45:13.765Z,1686.6710
2022-12-29T01:45:25.316Z,1687.7371
2022-12-29T01:45:36.573Z,1697.3940
2022-12-29T01:45:47.740Z,1695.2380
2022-12-29T01:45:58.902Z,1689.8730
2022-12-29T01:46:10.145Z,1688.8051
2022-12-29T01:46:21.439Z,1700.6370
2022-12-29T01:46:32.489Z,1688.8051
2022-12-29T01:46:43.695Z,1693.0880
2022-12-29T01:46:54.913Z,1704.9810
2022-12-29T01:47:06.101Z,1689.8730
2022-12-29T01:47:17.291Z,1683.4800
2022-12-29T01:47:28.503Z,1700.6370
2022-12-29T01:47:39.554Z,1693.0880
2022-12-29T01:47:50.633Z,1688.8051
2022-12-29T01:48:01.793Z,1697.3940
2022-12-29T01:48:12.962Z,1688.8051
2022-12-29T01:48:24.162Z,1693.0880
2022-12-29T01:48:35.212Z,1698.4730
2022-12-29T01:48:46.290Z,1707.1610
2022-12-29T01:48:57.455Z,1694.1620
2022-12-29T01:49:08.636Z,1689.8730
2022-12-29T01:49:19.855Z,1696.3149
2022-12-29T01:49:31.036Z,1701.7209
2022-12-29T01:49:42.245Z,1704.9810
2022-12-29T01:49:53.443Z,1692.0150
2022-12-29T01:50:04.754Z,1710.4420
2022-12-29T01:50:15.813Z,1692.0150
2022-12-29T01:50:27.061Z,1689.8730
2022-12-29T01:50:38.113Z,1698.4730
2022-12-29T01:50:49.156Z,1689.8730
2022-12-29T01:51:00.332Z,1689.8730
2022-12-29T01:51:11.539Z,1697.3940
2022-12-29T01:51:22.716Z,1692.0150
2022-12-29T01:51:33.926Z,1701.7209
2022-12-29T01:51:45.027Z,1699.5540
2022-12-29T01:51:56.135Z,1709.3470
2022-12-29T01:52:07.201Z,1699.5540
2022-12-29T01:52:18.443Z,1694.1620
2022-12-29T01:52:29.617Z,1699.5540
2022-12-29T01:52:40.816Z,1702.8060
2022-12-29T01:52:52.002Z,1693.0880
2022-12-29T01:53:03.210Z,1707.1610
2022-12-29T01:53:14.276Z,1711.5380
2022-12-29T01:53:25.342Z,1697.3940
2022-12-29T01:53:36.484Z,1704.9810
2022-12-29T01:53:47.696Z,1694.1620
2022-12-29T01:53:58.898Z,1707.1610
2022-12-29T01:54:10.088Z,1707.1610
2022-12-29T01:54:21.125Z,1708.2531
2022-12-29T01:54:32.232Z,1709.3470
2022-12-29T01:54:43.362Z,1707.1610
2022-12-29T01:54:54.417Z,1732.6410
2022-12-29T01:55:05.508Z,1693.0880
2022-12-29T01:55:16.697Z,1700.6370
2022-12-29T01:55:28.836Z,1699.5540
2022-12-29T01:55:40.024Z,1694.1620
2022-12-29T01:55:51.286Z,1707.1610
2022-12-29T01:56:02.416Z,1690.9440
2022-12-29T01:56:13.603Z,1690.9440
2022-12-29T01:56:24.662Z,1712.6360
2022-12-29T01:56:35.724Z,1706.0699
2022-12-29T01:56:46.899Z,1709.3470
2022-12-29T01:56:58.111Z,1694.1620
2022-12-29T01:57:09.295Z,1706.0699
2022-12-29T01:57:20.513Z,1708.2531
2022-12-29T01:57:31.698Z,1718.1470
2022-12-29T01:57:42.887Z,1700.6370
2022-12-29T01:57:53.974Z,1718.1470
2022-12-29T01:58:05.065Z,1715.9380
2022-12-29T01:58:16.166Z,1696.3149
2022-12-29T01:58:27.364Z,1704.9810
2022-12-29T01:58:38.579Z,1709.3470
2022-12-29T01:58:49.782Z,1690.9440
2022-12-29T01:59:00.809Z,1709.3470
2022-12-29T01:59:11.868Z,1700.6370
2022-12-29T01:59:23.043Z,1701.7209
2022-12-29T01:59:34.247Z,1700.6370
2022-12-29T01:59:45.353Z,1698.4730
2022-12-29T01:59:56.432Z,1709.3470
2022-12-29T02:00:07.525Z,1715.9380
2022-12-29T02:00:18.723Z,1704.9810
2022-12-29T02:00:29.775Z,1714.8361
2022-12-29T02:00:40.918Z,1713.7360
2022-12-29T02:00:52.025Z,1718.1470
2022-12-29T02:01:03.323Z,1725.9210
2022-12-29T02:01:14.437Z,1711.5380
2022-12-29T02:01:25.735Z,1711.5380
2022-12-29T02:01:36.961Z,1697.3940
2022-12-29T02:01:48.406Z,1709.3470
2022-12-29T02:01:59.720Z,1721.4700
2022-12-29T02:02:10.943Z,1703.8929
2022-12-29T02:02:22.147Z,1694.1620
2022-12-29T02:02:33.687Z,1723.6930
2022-12-29T02:02:45.108Z,1713.7360
2022-12-29T02:02:56.248Z,1714.8361
2022-12-29T02:03:07.468Z,1696.3149
2022-12-29T02:03:18.695Z,1698.4730
2022-12-29T02:03:29.831Z,1709.3470
2022-12-29T02:03:41.014Z,1700.6370
2022-12-29T02:03:52.183Z,1698.4730
2022-12-29T02:04:03.372Z,1719.2531
2022-12-29T02:04:14.563Z,1715.9380
2022-12-29T02:04:25.779Z,1703.8929
2022-12-29T02:04:36.968Z,1720.3610
2022-12-29T02:04:48.161Z,1713.7360
2022-12-29T02:05:04.279Z,1709.3470
2022-12-29T02:05:16.321Z,1690.9440
2022-12-29T02:05:29.185Z,1689.8730
2022-12-29T02:05:40.328Z,1696.3149
2022-12-29T02:05:51.527Z,1696.3149
2022-12-29T02:06:02.722Z,1711.5380
2022-12-29T02:06:13.937Z,1698.4730
2022-12-29T02:06:25.492Z,1689.8730
2022-12-29T02:06:36.653Z,1699.5540
2022-12-29T02:06:47.849Z,1712.6360
2022-12-29T02:06:59.052Z,1696.3149
2022-12-29T02:07:10.139Z,1700.6370
2022-12-29T02:07:21.208Z,1692.0150
2022-12-29T02:07:32.276Z,1709.3470
2022-12-29T02:07:43.351Z,1697.3940
2022-12-29T02:07:54.411Z,1711.5380
2022-12-29T02:08:05.630Z,1704.9810
2022-12-29T02:08:16.812Z,1708.2531
2022-12-29T02:08:28.687Z,1707.1610